sensor_id;sensor_type;location;lat;lon;timestamp;P1;durP1;ratioP1;P2;durP2;ratioP2
75135;SDS011;63707;52.212;9.540;2023-01-06T00:00:22;30.92;;;7.97;;
75135;SDS011;63707;52.212;9.540;2023-01-06T00:02:47;30.65;;;9.63;;
75135;SDS011;63707;52.212;9.540;2023-01-06T00:05:14;28.63;;;9.23;;
75135;SDS011;63707;52.212;9.540;2023-01-06T00:07:39;30.98;;;9.02;;
75135;SDS011;63707;52.212;9.540;2023-01-06T00:10:05;34.47;;;10.40;;
75135;SDS011;63707;52.212;9.540;2023-01-06T00:12:30;32.08;;;9.60;;
75135;SDS011;63707;52.212;9.540;2023-01-06T00:14:55;28.40;;;10.00;;
75135;SDS011;63707;52.212;9.540;2023-01-06T00:17:20;26.02;;;9.50;;
75135;SDS011;63707;52.212;9.540;2023-01-06T00:19:46;34.25;;;10.30;;
75135;SDS011;63707;52.212;9.540;2023-01-06T00:22:12;33.17;;;9.35;;
75135;SDS011;63707;52.212;9.540;2023-01-06T00:24:38;31.05;;;9.52;;
75135;SDS011;63707;52.212;9.540;2023-01-06T00:27:03;30.98;;;8.88;;
75135;SDS011;63707;52.212;9.540;2023-01-06T00:29:28;27.65;;;9.80;;
75135;SDS011;63707;52.212;9.540;2023-01-06T00:31:53;27.88;;;9.77;;
75135;SDS011;63707;52.212;9.540;2023-01-06T00:34:19;28.13;;;9.00;;
75135;SDS011;63707;52.212;9.540;2023-01-06T00:36:44;25.98;;;9.15;;
75135;SDS011;63707;52.212;9.540;2023-01-06T00:39:11;26.17;;;9.10;;
75135;SDS011;63707;52.212;9.540;2023-01-06T00:41:37;25.13;;;8.70;;
75135;SDS011;63707;52.212;9.540;2023-01-06T00:44:21;26.33;;;9.17;;
75135;SDS011;63707;52.212;9.540;2023-01-06T00:46:46;29.52;;;9.63;;
75135;SDS011;63707;52.212;9.540;2023-01-06T00:49:11;26.63;;;9.15;;
75135;SDS011;63707;52.212;9.540;2023-01-06T00:51:37;31.17;;;9.85;;
75135;SDS011;63707;52.212;9.540;2023-01-06T00:54:03;30.38;;;9.90;;
75135;SDS011;63707;52.212;9.540;2023-01-06T00:56:29;30.25;;;9.75;;
75135;SDS011;63707;52.212;9.540;2023-01-06T00:58:55;26.95;;;9.93;;
75135;SDS011;63707;52.212;9.540;2023-01-06T01:01:20;28.83;;;9.02;;
75135;SDS011;63707;52.212;9.540;2023-01-06T01:03:45;23.67;;;9.02;;
75135;SDS011;63707;52.212;9.540;2023-01-06T01:06:10;28.52;;;9.60;;
75135;SDS011;63707;52.212;9.540;2023-01-06T01:08:36;30.27;;;9.63;;
75135;SDS011;63707;52.212;9.540;2023-01-06T01:11:02;28.25;;;10.18;;
75135;SDS011;63707;52.212;9.540;2023-01-06T01:13:28;39.85;;;11.27;;
75135;SDS011;63707;52.212;9.540;2023-01-06T01:15:54;30.42;;;10.27;;
75135;SDS011;63707;52.212;9.540;2023-01-06T01:18:19;32.90;;;11.68;;
75135;SDS011;63707;52.212;9.540;2023-01-06T01:20:44;35.08;;;11.18;;
75135;SDS011;63707;52.212;9.540;2023-01-06T01:23:10;34.65;;;11.63;;
75135;SDS011;63707;52.212;9.540;2023-01-06T01:25:35;28.40;;;11.15;;
75135;SDS011;63707;52.212;9.540;2023-01-06T01:28:00;29.90;;;11.10;;
75135;SDS011;63707;52.212;9.540;2023-01-06T01:30:27;30.88;;;11.55;;
75135;SDS011;63707;52.212;9.540;2023-01-06T01:32:52;31.48;;;11.15;;
75135;SDS011;63707;52.212;9.540;2023-01-06T01:35:17;29.65;;;10.55;;
75135;SDS011;63707;52.212;9.540;2023-01-06T01:37:43;37.38;;;11.85;;
75135;SDS011;63707;52.212;9.540;2023-01-06T01:40:08;24.63;;;9.85;;
75135;SDS011;63707;52.212;9.540;2023-01-06T01:42:34;28.55;;;9.88;;
75135;SDS011;63707;52.212;9.540;2023-01-06T01:45:00;27.08;;;10.18;;
75135;SDS011;63707;52.212;9.540;2023-01-06T01:47:33;25.33;;;9.88;;
75135;SDS011;63707;52.212;9.540;2023-01-06T01:50:00;29.40;;;10.80;;
75135;SDS011;63707;52.212;9.540;2023-01-06T01:52:27;23.20;;;9.45;;
75135;SDS011;63707;52.212;9.540;2023-01-06T01:54:52;27.02;;;10.65;;
75135;SDS011;63707;52.212;9.540;2023-01-06T01:57:20;30.02;;;10.20;;
75135;SDS011;63707;52.212;9.540;2023-01-06T01:59:46;26.98;;;9.93;;
75135;SDS011;63707;52.212;9.540;2023-01-06T02:02:12;22.23;;;9.30;;
75135;SDS011;63707;52.212;9.540;2023-01-06T02:04:40;22.02;;;9.63;;
75135;SDS011;63707;52.212;9.540;2023-01-06T02:07:06;21.15;;;9.45;;
75135;SDS011;63707;52.212;9.540;2023-01-06T02:09:32;22.05;;;9.60;;
75135;SDS011;63707;52.212;9.540;2023-01-06T02:11:58;20.38;;;8.57;;
75135;SDS011;63707;52.212;9.540;2023-01-06T02:14:24;20.27;;;8.82;;
75135;SDS011;63707;52.212;9.540;2023-01-06T02:16:57;16.27;;;7.63;;
75135;SDS011;63707;52.212;9.540;2023-01-06T02:21:57;17.38;;;8.32;;
75135;SDS011;63707;52.212;9.540;2023-01-06T02:24:33;20.30;;;7.50;;
75135;SDS011;63707;52.212;9.540;2023-01-06T02:27:14;16.60;;;6.80;;
75135;SDS011;63707;52.212;9.540;2023-01-06T02:29:49;17.42;;;7.75;;
75135;SDS011;63707;52.212;9.540;2023-01-06T02:32:23;16.65;;;7.65;;
75135;SDS011;63707;52.212;9.540;2023-01-06T02:34:53;17.90;;;8.35;;
75135;SDS011;63707;52.212;9.540;2023-01-06T02:37:27;15.07;;;7.68;;
75135;SDS011;63707;52.212;9.540;2023-01-06T02:40:05;15.68;;;7.30;;
75135;SDS011;63707;52.212;9.540;2023-01-06T02:42:36;13.90;;;7.85;;
75135;SDS011;63707;52.212;9.540;2023-01-06T02:45:06;11.63;;;6.70;;
75135;SDS011;63707;52.212;9.540;2023-01-06T02:47:36;12.18;;;6.50;;
75135;SDS011;63707;52.212;9.540;2023-01-06T02:50:08;12.43;;;6.10;;
75135;SDS011;63707;52.212;9.540;2023-01-06T02:52:38;10.77;;;4.95;;
75135;SDS011;63707;52.212;9.540;2023-01-06T02:55:07;10.63;;;5.22;;
75135;SDS011;63707;52.212;9.540;2023-01-06T02:57:36;10.85;;;4.80;;
75135;SDS011;63707;52.212;9.540;2023-01-06T03:00:05;15.00;;;5.55;;
75135;SDS011;63707;52.212;9.540;2023-01-06T03:02:32;14.57;;;5.65;;
75135;SDS011;63707;52.212;9.540;2023-01-06T03:05:00;10.85;;;4.63;;
75135;SDS011;63707;52.212;9.540;2023-01-06T03:07:26;9.63;;;5.07;;
75135;SDS011;63707;52.212;9.540;2023-01-06T03:09:52;13.48;;;5.32;;
75135;SDS011;63707;52.212;9.540;2023-01-06T03:12:23;11.15;;;4.75;;
75135;SDS011;63707;52.212;9.540;2023-01-06T03:14:51;10.30;;;4.97;;
75135;SDS011;63707;52.212;9.540;2023-01-06T03:17:18;13.07;;;5.20;;
75135;SDS011;63707;52.212;9.540;2023-01-06T03:19:44;10.82;;;5.22;;
75135;SDS011;63707;52.212;9.540;2023-01-06T03:22:11;13.55;;;4.90;;
75135;SDS011;63707;52.212;9.540;2023-01-06T03:24:36;11.80;;;5.20;;
75135;SDS011;63707;52.212;9.540;2023-01-06T03:27:02;11.77;;;4.90;;
75135;SDS011;63707;52.212;9.540;2023-01-06T03:29:27;12.73;;;5.88;;
75135;SDS011;63707;52.212;9.540;2023-01-06T03:31:56;16.65;;;5.93;;
75135;SDS011;63707;52.212;9.540;2023-01-06T03:34:22;11.30;;;5.53;;
75135;SDS011;63707;52.212;9.540;2023-01-06T03:36:51;12.57;;;6.20;;
75135;SDS011;63707;52.212;9.540;2023-01-06T03:39:23;14.20;;;5.80;;
75135;SDS011;63707;52.212;9.540;2023-01-06T03:41:58;14.52;;;6.20;;
75135;SDS011;63707;52.212;9.540;2023-01-06T03:44:43;13.60;;;6.22;;
75135;SDS011;63707;52.212;9.540;2023-01-06T03:47:11;12.45;;;5.53;;
75135;SDS011;63707;52.212;9.540;2023-01-06T03:49:40;15.73;;;5.63;;
75135;SDS011;63707;52.212;9.540;2023-01-06T03:52:10;13.05;;;5.65;;
75135;SDS011;63707;52.212;9.540;2023-01-06T03:54:39;10.27;;;5.13;;
75135;SDS011;63707;52.212;9.540;2023-01-06T03:57:05;14.32;;;5.65;;
75135;SDS011;63707;52.212;9.540;2023-01-06T03:59:32;12.85;;;5.82;;
75135;SDS011;63707;52.212;9.540;2023-01-06T04:01:59;12.30;;;6.28;;
75135;SDS011;63707;52.212;9.540;2023-01-06T04:04:24;15.35;;;6.20;;
75135;SDS011;63707;52.212;9.540;2023-01-06T04:06:50;13.68;;;6.65;;
75135;SDS011;63707;52.212;9.540;2023-01-06T04:09:15;11.75;;;5.93;;
75135;SDS011;63707;52.212;9.540;2023-01-06T04:11:42;9.77;;;5.57;;
75135;SDS011;63707;52.212;9.540;2023-01-06T04:14:25;12.88;;;6.03;;
75135;SDS011;63707;52.212;9.540;2023-01-06T04:16:51;12.38;;;5.78;;
75135;SDS011;63707;52.212;9.540;2023-01-06T04:19:16;15.75;;;5.95;;
75135;SDS011;63707;52.212;9.540;2023-01-06T04:21:41;11.88;;;5.93;;
75135;SDS011;63707;52.212;9.540;2023-01-06T04:24:07;10.05;;;5.68;;
75135;SDS011;63707;52.212;9.540;2023-01-06T04:26:32;10.45;;;5.50;;
75135;SDS011;63707;52.212;9.540;2023-01-06T04:28:59;9.45;;;5.20;;
75135;SDS011;63707;52.212;9.540;2023-01-06T04:31:24;12.38;;;5.40;;
75135;SDS011;63707;52.212;9.540;2023-01-06T04:33:50;11.90;;;5.13;;
75135;SDS011;63707;52.212;9.540;2023-01-06T04:36:15;7.63;;;4.55;;
75135;SDS011;63707;52.212;9.540;2023-01-06T04:38:40;10.52;;;4.93;;
75135;SDS011;63707;52.212;9.540;2023-01-06T04:41:06;10.50;;;4.60;;
75135;SDS011;63707;52.212;9.540;2023-01-06T04:43:31;10.98;;;4.15;;
75135;SDS011;63707;52.212;9.540;2023-01-06T04:45:58;7.45;;;4.30;;
75135;SDS011;63707;52.212;9.540;2023-01-06T04:48:23;6.65;;;4.13;;
75135;SDS011;63707;52.212;9.540;2023-01-06T04:50:49;10.50;;;3.70;;
75135;SDS011;63707;52.212;9.540;2023-01-06T04:53:14;10.60;;;3.60;;
75135;SDS011;63707;52.212;9.540;2023-01-06T04:55:39;6.25;;;3.30;;
75135;SDS011;63707;52.212;9.540;2023-01-06T04:58:05;9.18;;;3.13;;
75135;SDS011;63707;52.212;9.540;2023-01-06T05:00:30;7.28;;;2.75;;
75135;SDS011;63707;52.212;9.540;2023-01-06T05:02:57;11.30;;;2.90;;
75135;SDS011;63707;52.212;9.540;2023-01-06T05:05:22;5.28;;;2.90;;
75135;SDS011;63707;52.212;9.540;2023-01-06T05:07:47;5.18;;;2.28;;
75135;SDS011;63707;52.212;9.540;2023-01-06T05:10:13;7.95;;;2.38;;
75135;SDS011;63707;52.212;9.540;2023-01-06T05:12:38;7.68;;;2.22;;
75135;SDS011;63707;52.212;9.540;2023-01-06T05:15:04;5.18;;;1.95;;
75135;SDS011;63707;52.212;9.540;2023-01-06T05:17:29;6.40;;;1.90;;
75135;SDS011;63707;52.212;9.540;2023-01-06T05:19:56;6.95;;;1.77;;
75135;SDS011;63707;52.212;9.540;2023-01-06T05:22:21;5.85;;;2.00;;
75135;SDS011;63707;52.212;9.540;2023-01-06T05:24:47;6.32;;;1.60;;
75135;SDS011;63707;52.212;9.540;2023-01-06T05:27:12;4.88;;;1.40;;
75135;SDS011;63707;52.212;9.540;2023-01-06T05:29:37;7.05;;;1.17;;
75135;SDS011;63707;52.212;9.540;2023-01-06T05:32:03;3.72;;;1.20;;
75135;SDS011;63707;52.212;9.540;2023-01-06T05:34:29;3.10;;;1.10;;
75135;SDS011;63707;52.212;9.540;2023-01-06T05:36:55;4.72;;;1.42;;
75135;SDS011;63707;52.212;9.540;2023-01-06T05:39:21;3.85;;;1.00;;
75135;SDS011;63707;52.212;9.540;2023-01-06T05:41:46;5.65;;;1.23;;
75135;SDS011;63707;52.212;9.540;2023-01-06T05:44:11;4.32;;;1.10;;
75135;SDS011;63707;52.212;9.540;2023-01-06T05:46:36;3.88;;;1.48;;
75135;SDS011;63707;52.212;9.540;2023-01-06T05:49:02;4.50;;;1.15;;
75135;SDS011;63707;52.212;9.540;2023-01-06T05:51:27;4.80;;;0.90;;
75135;SDS011;63707;52.212;9.540;2023-01-06T05:53:54;4.38;;;1.42;;
75135;SDS011;63707;52.212;9.540;2023-01-06T05:56:20;4.57;;;0.98;;
75135;SDS011;63707;52.212;9.540;2023-01-06T05:58:46;5.40;;;1.30;;
75135;SDS011;63707;52.212;9.540;2023-01-06T06:01:15;6.82;;;1.10;;
75135;SDS011;63707;52.212;9.540;2023-01-06T06:03:40;2.60;;;1.17;;
75135;SDS011;63707;52.212;9.540;2023-01-06T06:06:06;5.45;;;1.00;;
75135;SDS011;63707;52.212;9.540;2023-01-06T06:08:31;3.72;;;0.88;;
75135;SDS011;63707;52.212;9.540;2023-01-06T06:11:01;4.68;;;1.10;;
75135;SDS011;63707;52.212;9.540;2023-01-06T06:13:27;3.75;;;1.00;;
75135;SDS011;63707;52.212;9.540;2023-01-06T06:16:01;2.90;;;1.10;;
75135;SDS011;63707;52.212;9.540;2023-01-06T06:18:26;3.03;;;1.02;;
75135;SDS011;63707;52.212;9.540;2023-01-06T06:20:51;4.47;;;0.93;;
75135;SDS011;63707;52.212;9.540;2023-01-06T06:23:17;3.67;;;1.10;;
75135;SDS011;63707;52.212;9.540;2023-01-06T06:25:43;3.95;;;1.02;;
75135;SDS011;63707;52.212;9.540;2023-01-06T06:28:09;4.57;;;1.30;;
75135;SDS011;63707;52.212;9.540;2023-01-06T06:30:35;3.42;;;1.30;;
75135;SDS011;63707;52.212;9.540;2023-01-06T06:33:00;4.28;;;1.20;;
75135;SDS011;63707;52.212;9.540;2023-01-06T06:35:25;6.70;;;1.55;;
75135;SDS011;63707;52.212;9.540;2023-01-06T06:37:52;4.03;;;1.27;;
75135;SDS011;63707;52.212;9.540;2023-01-06T06:40:17;4.65;;;1.23;;
75135;SDS011;63707;52.212;9.540;2023-01-06T06:42:43;3.17;;;1.40;;
75135;SDS011;63707;52.212;9.540;2023-01-06T06:45:10;2.72;;;1.38;;
75135;SDS011;63707;52.212;9.540;2023-01-06T06:47:35;6.25;;;1.50;;
75135;SDS011;63707;52.212;9.540;2023-01-06T06:50:00;5.80;;;1.30;;
75135;SDS011;63707;52.212;9.540;2023-01-06T06:52:25;4.75;;;1.85;;
75135;SDS011;63707;52.212;9.540;2023-01-06T06:54:51;4.45;;;1.60;;
75135;SDS011;63707;52.212;9.540;2023-01-06T06:57:16;2.72;;;1.45;;
75135;SDS011;63707;52.212;9.540;2023-01-06T06:59:41;7.05;;;1.70;;
75135;SDS011;63707;52.212;9.540;2023-01-06T07:02:08;5.47;;;1.52;;
75135;SDS011;63707;52.212;9.540;2023-01-06T07:04:33;5.30;;;1.80;;
75135;SDS011;63707;52.212;9.540;2023-01-06T07:06:59;6.13;;;2.50;;
75135;SDS011;63707;52.212;9.540;2023-01-06T07:09:24;5.55;;;2.15;;
75135;SDS011;63707;52.212;9.540;2023-01-06T07:11:49;5.45;;;1.80;;
75135;SDS011;63707;52.212;9.540;2023-01-06T07:14:14;5.50;;;1.92;;
75135;SDS011;63707;52.212;9.540;2023-01-06T07:16:40;5.78;;;1.52;;
75135;SDS011;63707;52.212;9.540;2023-01-06T07:19:08;5.25;;;1.45;;
75135;SDS011;63707;52.212;9.540;2023-01-06T07:21:34;2.58;;;1.25;;
75135;SDS011;63707;52.212;9.540;2023-01-06T07:23:59;6.47;;;1.65;;
75135;SDS011;63707;52.212;9.540;2023-01-06T07:26:24;3.85;;;1.52;;
75135;SDS011;63707;52.212;9.540;2023-01-06T07:28:49;8.07;;;2.17;;
75135;SDS011;63707;52.212;9.540;2023-01-06T07:31:15;6.45;;;1.77;;
75135;SDS011;63707;52.212;9.540;2023-01-06T07:33:40;6.53;;;2.42;;
75135;SDS011;63707;52.212;9.540;2023-01-06T07:36:07;6.25;;;2.10;;
75135;SDS011;63707;52.212;9.540;2023-01-06T07:38:33;5.60;;;1.80;;
75135;SDS011;63707;52.212;9.540;2023-01-06T07:40:58;2.35;;;1.80;;
75135;SDS011;63707;52.212;9.540;2023-01-06T07:43:24;3.00;;;1.63;;
75135;SDS011;63707;52.212;9.540;2023-01-06T07:45:49;5.15;;;1.45;;
75135;SDS011;63707;52.212;9.540;2023-01-06T07:48:15;4.15;;;1.50;;
75135;SDS011;63707;52.212;9.540;2023-01-06T07:50:40;2.50;;;1.90;;
75135;SDS011;63707;52.212;9.540;2023-01-06T07:53:07;14.48;;;2.35;;
75135;SDS011;63707;52.212;9.540;2023-01-06T07:55:32;3.33;;;1.52;;
75135;SDS011;63707;52.212;9.540;2023-01-06T07:57:58;2.15;;;1.00;;
75135;SDS011;63707;52.212;9.540;2023-01-06T08:00:23;4.28;;;1.30;;
75135;SDS011;63707;52.212;9.540;2023-01-06T08:02:48;4.20;;;1.27;;
75135;SDS011;63707;52.212;9.540;2023-01-06T08:05:14;3.88;;;1.05;;
75135;SDS011;63707;52.212;9.540;2023-01-06T08:07:39;3.03;;;1.67;;
75135;SDS011;63707;52.212;9.540;2023-01-06T08:10:06;4.18;;;0.95;;
75135;SDS011;63707;52.212;9.540;2023-01-06T08:12:31;4.30;;;1.08;;
75135;SDS011;63707;52.212;9.540;2023-01-06T08:14:57;2.78;;;0.90;;
75135;SDS011;63707;52.212;9.540;2023-01-06T08:17:22;4.82;;;1.17;;
75135;SDS011;63707;52.212;9.540;2023-01-06T08:19:47;5.43;;;1.00;;
75135;SDS011;63707;52.212;9.540;2023-01-06T08:22:13;3.03;;;1.00;;
75135;SDS011;63707;52.212;9.540;2023-01-06T08:24:38;3.75;;;1.10;;
75135;SDS011;63707;52.212;9.540;2023-01-06T08:27:05;3.17;;;1.08;;
75135;SDS011;63707;52.212;9.540;2023-01-06T08:29:30;2.85;;;0.90;;
75135;SDS011;63707;52.212;9.540;2023-01-06T08:31:55;4.35;;;1.48;;
75135;SDS011;63707;52.212;9.540;2023-01-06T08:34:20;7.82;;;1.40;;
75135;SDS011;63707;52.212;9.540;2023-01-06T08:36:46;3.03;;;1.00;;
75135;SDS011;63707;52.212;9.540;2023-01-06T08:39:11;2.08;;;0.95;;
75135;SDS011;63707;52.212;9.540;2023-01-06T08:41:37;4.25;;;0.88;;
75135;SDS011;63707;52.212;9.540;2023-01-06T08:44:04;2.88;;;1.02;;
75135;SDS011;63707;52.212;9.540;2023-01-06T08:46:29;3.97;;;1.27;;
75135;SDS011;63707;52.212;9.540;2023-01-06T08:48:55;6.07;;;1.40;;
75135;SDS011;63707;52.212;9.540;2023-01-06T08:51:21;3.20;;;0.90;;
75135;SDS011;63707;52.212;9.540;2023-01-06T08:53:47;5.13;;;1.00;;
75135;SDS011;63707;52.212;9.540;2023-01-06T08:56:13;3.17;;;1.00;;
75135;SDS011;63707;52.212;9.540;2023-01-06T08:58:39;1.10;;;0.70;;
75135;SDS011;63707;52.212;9.540;2023-01-06T09:01:06;2.20;;;1.17;;
75135;SDS011;63707;52.212;9.540;2023-01-06T09:03:31;3.17;;;1.15;;
75135;SDS011;63707;52.212;9.540;2023-01-06T09:05:56;3.38;;;0.90;;
75135;SDS011;63707;52.212;9.540;2023-01-06T09:08:22;4.18;;;1.10;;
75135;SDS011;63707;52.212;9.540;2023-01-06T09:10:47;1.48;;;0.70;;
75135;SDS011;63707;52.212;9.540;2023-01-06T09:13:13;4.95;;;1.23;;
75135;SDS011;63707;52.212;9.540;2023-01-06T09:15:38;4.00;;;1.00;;
75135;SDS011;63707;52.212;9.540;2023-01-06T09:18:05;3.47;;;1.38;;
75135;SDS011;63707;52.212;9.540;2023-01-06T09:20:32;2.15;;;1.00;;
75135;SDS011;63707;52.212;9.540;2023-01-06T09:22:58;2.42;;;0.95;;
75135;SDS011;63707;52.212;9.540;2023-01-06T09:25:23;1.55;;;0.77;;
75135;SDS011;63707;52.212;9.540;2023-01-06T09:27:48;3.55;;;0.90;;
75135;SDS011;63707;52.212;9.540;2023-01-06T09:30:13;1.88;;;0.80;;
75135;SDS011;63707;52.212;9.540;2023-01-06T09:32:39;1.88;;;0.70;;
75135;SDS011;63707;52.212;9.540;2023-01-06T09:35:06;2.53;;;1.00;;
75135;SDS011;63707;52.212;9.540;2023-01-06T09:37:32;2.85;;;0.80;;
75135;SDS011;63707;52.212;9.540;2023-01-06T09:39:57;4.45;;;1.13;;
75135;SDS011;63707;52.212;9.540;2023-01-06T09:42:26;8.15;;;1.10;;
75135;SDS011;63707;52.212;9.540;2023-01-06T09:44:55;2.97;;;1.00;;
75135;SDS011;63707;52.212;9.540;2023-01-06T09:47:22;3.72;;;1.13;;
75135;SDS011;63707;52.212;9.540;2023-01-06T09:49:50;1.65;;;1.00;;
75135;SDS011;63707;52.212;9.540;2023-01-06T09:52:18;3.20;;;0.82;;
75135;SDS011;63707;52.212;9.540;2023-01-06T09:54:49;2.45;;;0.90;;
75135;SDS011;63707;52.212;9.540;2023-01-06T09:57:17;1.88;;;1.02;;
75135;SDS011;63707;52.212;9.540;2023-01-06T09:59:45;5.40;;;1.10;;
75135;SDS011;63707;52.212;9.540;2023-01-06T10:02:13;4.13;;;0.98;;
75135;SDS011;63707;52.212;9.540;2023-01-06T10:04:41;2.65;;;1.20;;
75135;SDS011;63707;52.212;9.540;2023-01-06T10:07:09;1.17;;;0.90;;
75135;SDS011;63707;52.212;9.540;2023-01-06T10:09:41;3.67;;;1.20;;
75135;SDS011;63707;52.212;9.540;2023-01-06T10:12:13;2.28;;;1.20;;
75135;SDS011;63707;52.212;9.540;2023-01-06T10:14:44;4.95;;;1.30;;
75135;SDS011;63707;52.212;9.540;2023-01-06T10:17:24;5.07;;;1.58;;
75135;SDS011;63707;52.212;9.540;2023-01-06T10:19:56;2.70;;;1.08;;
75135;SDS011;63707;52.212;9.540;2023-01-06T10:22:26;4.00;;;1.10;;
75135;SDS011;63707;52.212;9.540;2023-01-06T10:24:58;2.40;;;1.30;;
75135;SDS011;63707;52.212;9.540;2023-01-06T10:27:26;4.32;;;1.10;;
75135;SDS011;63707;52.212;9.540;2023-01-06T10:29:53;2.15;;;1.10;;
75135;SDS011;63707;52.212;9.540;2023-01-06T10:32:19;2.90;;;1.33;;
75135;SDS011;63707;52.212;9.540;2023-01-06T10:34:46;1.52;;;1.13;;
75135;SDS011;63707;52.212;9.540;2023-01-06T10:37:13;2.60;;;1.38;;
75135;SDS011;63707;52.212;9.540;2023-01-06T10:39:42;4.18;;;1.55;;
75135;SDS011;63707;52.212;9.540;2023-01-06T10:42:10;3.53;;;1.40;;
75135;SDS011;63707;52.212;9.540;2023-01-06T10:45:00;2.88;;;1.60;;
75135;SDS011;63707;52.212;9.540;2023-01-06T10:47:26;1.42;;;1.27;;
75135;SDS011;63707;52.212;9.540;2023-01-06T10:49:52;3.30;;;1.70;;
75135;SDS011;63707;52.212;9.540;2023-01-06T10:52:18;3.55;;;1.50;;
75135;SDS011;63707;52.212;9.540;2023-01-06T10:54:44;2.78;;;1.40;;
75135;SDS011;63707;52.212;9.540;2023-01-06T10:57:13;2.90;;;1.80;;
75135;SDS011;63707;52.212;9.540;2023-01-06T11:02:20;2.38;;;1.67;;
75135;SDS011;63707;52.212;9.540;2023-01-06T11:04:49;2.53;;;1.92;;
75135;SDS011;63707;52.212;9.540;2023-01-06T11:07:15;2.75;;;1.75;;
75135;SDS011;63707;52.212;9.540;2023-01-06T11:09:41;2.20;;;1.92;;
75135;SDS011;63707;52.212;9.540;2023-01-06T11:12:07;3.15;;;2.20;;
75135;SDS011;63707;52.212;9.540;2023-01-06T11:14:35;2.30;;;2.10;;
75135;SDS011;63707;52.212;9.540;2023-01-06T11:17:01;3.15;;;2.30;;
75135;SDS011;63707;52.212;9.540;2023-01-06T11:19:34;3.38;;;2.28;;
75135;SDS011;63707;52.212;9.540;2023-01-06T11:22:00;2.75;;;2.50;;
75135;SDS011;63707;52.212;9.540;2023-01-06T11:24:25;4.32;;;2.50;;
75135;SDS011;63707;52.212;9.540;2023-01-06T11:26:52;2.65;;;2.42;;
75135;SDS011;63707;52.212;9.540;2023-01-06T11:29:22;2.33;;;2.13;;
75135;SDS011;63707;52.212;9.540;2023-01-06T11:31:50;3.17;;;2.30;;
75135;SDS011;63707;52.212;9.540;2023-01-06T11:34:18;8.05;;;3.65;;
75135;SDS011;63707;52.212;9.540;2023-01-06T11:36:44;3.50;;;2.30;;
75135;SDS011;63707;52.212;9.540;2023-01-06T11:39:13;2.75;;;2.55;;
75135;SDS011;63707;52.212;9.540;2023-01-06T11:41:43;2.90;;;2.47;;
75135;SDS011;63707;52.212;9.540;2023-01-06T11:44:11;2.67;;;2.47;;
75135;SDS011;63707;52.212;9.540;2023-01-06T11:46:38;3.03;;;2.58;;
75135;SDS011;63707;52.212;9.540;2023-01-06T11:49:09;2.80;;;2.47;;
75135;SDS011;63707;52.212;9.540;2023-01-06T11:51:46;3.55;;;3.15;;
75135;SDS011;63707;52.212;9.540;2023-01-06T11:54:20;3.58;;;2.88;;
75135;SDS011;63707;52.212;9.540;2023-01-06T11:56:49;3.70;;;2.85;;
75135;SDS011;63707;52.212;9.540;2023-01-06T11:59:20;4.10;;;3.50;;
75135;SDS011;63707;52.212;9.540;2023-01-06T12:01:49;4.68;;;4.07;;
75135;SDS011;63707;52.212;9.540;2023-01-06T12:04:19;6.40;;;4.40;;
75135;SDS011;63707;52.212;9.540;2023-01-06T12:06:46;6.22;;;4.65;;
75135;SDS011;63707;52.212;9.540;2023-01-06T12:09:15;6.40;;;5.15;;
75135;SDS011;63707;52.212;9.540;2023-01-06T12:11:43;6.38;;;4.30;;
75135;SDS011;63707;52.212;9.540;2023-01-06T12:14:10;5.95;;;4.25;;
75135;SDS011;63707;52.212;9.540;2023-01-06T12:16:37;6.25;;;4.30;;
75135;SDS011;63707;52.212;9.540;2023-01-06T12:19:03;3.55;;;3.13;;
75135;SDS011;63707;52.212;9.540;2023-01-06T12:21:32;4.82;;;3.83;;
75135;SDS011;63707;52.212;9.540;2023-01-06T12:23:59;7.63;;;4.38;;
75135;SDS011;63707;52.212;9.540;2023-01-06T12:26:25;6.75;;;3.97;;
75135;SDS011;63707;52.212;9.540;2023-01-06T12:28:52;5.70;;;4.07;;
75135;SDS011;63707;52.212;9.540;2023-01-06T12:31:19;4.80;;;3.17;;
75135;SDS011;63707;52.212;9.540;2023-01-06T12:33:47;4.85;;;2.88;;
75135;SDS011;63707;52.212;9.540;2023-01-06T12:36:15;6.75;;;3.63;;
75135;SDS011;63707;52.212;9.540;2023-01-06T12:38:47;5.38;;;3.28;;
75135;SDS011;63707;52.212;9.540;2023-01-06T12:41:15;3.70;;;3.20;;
75135;SDS011;63707;52.212;9.540;2023-01-06T12:43:46;4.13;;;2.90;;
75135;SDS011;63707;52.212;9.540;2023-01-06T12:46:17;4.95;;;3.00;;
75135;SDS011;63707;52.212;9.540;2023-01-06T12:48:44;4.13;;;2.80;;
75135;SDS011;63707;52.212;9.540;2023-01-06T12:51:11;3.85;;;2.35;;
75135;SDS011;63707;52.212;9.540;2023-01-06T12:53:39;4.93;;;2.30;;
75135;SDS011;63707;52.212;9.540;2023-01-06T12:56:13;4.97;;;2.20;;
75135;SDS011;63707;52.212;9.540;2023-01-06T12:58:44;4.45;;;2.22;;
75135;SDS011;63707;52.212;9.540;2023-01-06T13:01:14;6.05;;;2.75;;
75135;SDS011;63707;52.212;9.540;2023-01-06T13:06:30;6.85;;;2.92;;
75135;SDS011;63707;52.212;9.540;2023-01-06T13:09:06;7.28;;;2.15;;
75135;SDS011;63707;52.212;9.540;2023-01-06T13:11:38;3.25;;;1.92;;
75135;SDS011;63707;52.212;9.540;2023-01-06T13:14:09;2.47;;;1.80;;
75135;SDS011;63707;52.212;9.540;2023-01-06T13:16:38;4.68;;;2.00;;
75135;SDS011;63707;52.212;9.540;2023-01-06T13:19:09;3.97;;;1.80;;
75135;SDS011;63707;52.212;9.540;2023-01-06T13:21:39;2.80;;;1.83;;
75135;SDS011;63707;52.212;9.540;2023-01-06T13:27:02;4.80;;;1.95;;
75135;SDS011;63707;52.212;9.540;2023-01-06T13:29:34;3.38;;;1.85;;
75135;SDS011;63707;52.212;9.540;2023-01-06T13:32:10;3.22;;;1.95;;
75135;SDS011;63707;52.212;9.540;2023-01-06T13:34:44;4.05;;;1.92;;
75135;SDS011;63707;52.212;9.540;2023-01-06T13:37:30;3.30;;;1.73;;
75135;SDS011;63707;52.212;9.540;2023-01-06T13:39:58;3.60;;;1.50;;
75135;SDS011;63707;52.212;9.540;2023-01-06T13:42:30;4.63;;;2.05;;
75135;SDS011;63707;52.212;9.540;2023-01-06T13:44:57;2.65;;;1.70;;
75135;SDS011;63707;52.212;9.540;2023-01-06T13:47:22;2.08;;;1.70;;
75135;SDS011;63707;52.212;9.540;2023-01-06T13:49:48;5.53;;;1.80;;
75135;SDS011;63707;52.212;9.540;2023-01-06T13:52:15;4.68;;;2.05;;
75135;SDS011;63707;52.212;9.540;2023-01-06T13:54:59;3.03;;;2.10;;
75135;SDS011;63707;52.212;9.540;2023-01-06T13:57:30;6.13;;;2.40;;
75135;SDS011;63707;52.212;9.540;2023-01-06T14:00:06;4.97;;;2.60;;
75135;SDS011;63707;52.212;9.540;2023-01-06T14:07:57;4.55;;;2.25;;
75135;SDS011;63707;52.212;9.540;2023-01-06T14:10:28;4.57;;;2.40;;
75135;SDS011;63707;52.212;9.540;2023-01-06T14:12:56;6.03;;;2.20;;
75135;SDS011;63707;52.212;9.540;2023-01-06T14:15:22;4.72;;;2.00;;
75135;SDS011;63707;52.212;9.540;2023-01-06T14:17:50;6.40;;;2.28;;
75135;SDS011;63707;52.212;9.540;2023-01-06T14:20:25;5.40;;;2.10;;
75135;SDS011;63707;52.212;9.540;2023-01-06T14:22:58;6.82;;;3.08;;
75135;SDS011;63707;52.212;9.540;2023-01-06T14:25:23;3.78;;;1.80;;
75135;SDS011;63707;52.212;9.540;2023-01-06T14:28:22;5.28;;;2.80;;
75135;SDS011;63707;52.212;9.540;2023-01-06T14:30:48;5.50;;;2.40;;
75135;SDS011;63707;52.212;9.540;2023-01-06T14:33:21;9.75;;;3.28;;
75135;SDS011;63707;52.212;9.540;2023-01-06T14:35:47;4.43;;;2.77;;
75135;SDS011;63707;52.212;9.540;2023-01-06T14:38:16;6.38;;;2.70;;
75135;SDS011;63707;52.212;9.540;2023-01-06T14:40:46;5.03;;;2.80;;
75135;SDS011;63707;52.212;9.540;2023-01-06T14:43:25;6.78;;;2.50;;
75135;SDS011;63707;52.212;9.540;2023-01-06T14:45:52;5.82;;;2.30;;
75135;SDS011;63707;52.212;9.540;2023-01-06T14:48:18;7.68;;;2.67;;
75135;SDS011;63707;52.212;9.540;2023-01-06T14:50:45;5.95;;;2.83;;
75135;SDS011;63707;52.212;9.540;2023-01-06T14:53:12;8.40;;;2.95;;
75135;SDS011;63707;52.212;9.540;2023-01-06T14:55:43;10.25;;;3.03;;
75135;SDS011;63707;52.212;9.540;2023-01-06T15:00:51;7.40;;;3.17;;
75135;SDS011;63707;52.212;9.540;2023-01-06T15:03:19;5.93;;;3.10;;